sensor_id;sensor_type;location;lat;lon;timestamp;P1;durP1;ratioP1;P2;durP2;ratioP2
4359;SDS011;2193;47.980;7.660;2023-01-01T00:00:42;27.47;;;15.30;;
4359;SDS011;2193;47.980;7.660;2023-01-01T00:03:07;31.80;;;17.60;;
4359;SDS011;2193;47.980;7.660;2023-01-01T00:05:32;21.13;;;11.33;;
4359;SDS011;2193;47.980;7.660;2023-01-01T00:07:57;20.20;;;11.10;;
4359;SDS011;2193;47.980;7.660;2023-01-01T00:10:22;26.50;;;13.73;;
4359;SDS011;2193;47.980;7.660;2023-01-01T00:12:54;32.37;;;16.73;;
4359;SDS011;2193;47.980;7.660;2023-01-01T00:15:19;24.07;;;12.77;;
4359;SDS011;2193;47.980;7.660;2023-01-01T00:17:44;38.07;;;18.03;;
4359;SDS011;2193;47.980;7.660;2023-01-01T00:20:10;23.10;;;10.23;;
4359;SDS011;2193;47.980;7.660;2023-01-01T00:22:35;24.27;;;12.37;;
4359;SDS011;2193;47.980;7.660;2023-01-01T00:25:00;12.30;;;7.33;;
4359;SDS011;2193;47.980;7.660;2023-01-01T00:27:26;10.10;;;7.17;;
4359;SDS011;2193;47.980;7.660;2023-01-01T00:29:51;11.10;;;6.77;;
4359;SDS011;2193;47.980;7.660;2023-01-01T00:32:16;12.37;;;5.80;;
4359;SDS011;2193;47.980;7.660;2023-01-01T00:34:41;7.33;;;5.50;;
4359;SDS011;2193;47.980;7.660;2023-01-01T00:37:06;12.03;;;5.73;;
4359;SDS011;2193;47.980;7.660;2023-01-01T00:39:32;4.63;;;3.70;;
4359;SDS011;2193;47.980;7.660;2023-01-01T00:41:57;7.03;;;3.50;;
4359;SDS011;2193;47.980;7.660;2023-01-01T00:44:22;9.70;;;3.70;;
4359;SDS011;2193;47.980;7.660;2023-01-01T00:46:47;4.60;;;3.27;;
4359;SDS011;2193;47.980;7.660;2023-01-01T00:49:12;5.30;;;4.47;;
4359;SDS011;2193;47.980;7.660;2023-01-01T00:51:38;4.83;;;2.90;;
4359;SDS011;2193;47.980;7.660;2023-01-01T00:54:03;6.03;;;3.33;;
4359;SDS011;2193;47.980;7.660;2023-01-01T00:56:28;5.97;;;3.60;;
4359;SDS011;2193;47.980;7.660;2023-01-01T00:58:53;4.67;;;3.53;;
4359;SDS011;2193;47.980;7.660;2023-01-01T01:01:18;4.33;;;3.73;;
4359;SDS011;2193;47.980;7.660;2023-01-01T01:03:44;5.00;;;3.70;;
4359;SDS011;2193;47.980;7.660;2023-01-01T01:06:10;6.50;;;4.20;;
4359;SDS011;2193;47.980;7.660;2023-01-01T01:08:37;5.43;;;4.13;;
4359;SDS011;2193;47.980;7.660;2023-01-01T01:11:13;6.47;;;3.80;;
4359;SDS011;2193;47.980;7.660;2023-01-01T01:13:38;4.10;;;3.30;;
4359;SDS011;2193;47.980;7.660;2023-01-01T01:16:08;4.50;;;3.10;;
4359;SDS011;2193;47.980;7.660;2023-01-01T01:18:34;4.60;;;3.07;;
4359;SDS011;2193;47.980;7.660;2023-01-01T01:20:59;3.67;;;2.80;;
4359;SDS011;2193;47.980;7.660;2023-01-01T01:23:24;6.20;;;3.67;;
4359;SDS011;2193;47.980;7.660;2023-01-01T01:25:49;6.93;;;3.53;;
4359;SDS011;2193;47.980;7.660;2023-01-01T01:28:14;5.70;;;3.50;;
4359;SDS011;2193;47.980;7.660;2023-01-01T01:30:40;6.57;;;3.80;;
4359;SDS011;2193;47.980;7.660;2023-01-01T01:33:05;5.60;;;3.87;;
4359;SDS011;2193;47.980;7.660;2023-01-01T01:35:30;6.60;;;4.10;;
4359;SDS011;2193;47.980;7.660;2023-01-01T01:37:57;4.47;;;3.17;;
4359;SDS011;2193;47.980;7.660;2023-01-01T01:40:22;6.87;;;3.93;;
4359;SDS011;2193;47.980;7.660;2023-01-01T01:42:47;10.07;;;4.07;;
4359;SDS011;2193;47.980;7.660;2023-01-01T01:45:13;4.77;;;3.80;;
4359;SDS011;2193;47.980;7.660;2023-01-01T01:47:41;6.30;;;3.40;;
4359;SDS011;2193;47.980;7.660;2023-01-01T01:50:13;6.37;;;3.70;;
4359;SDS011;2193;47.980;7.660;2023-01-01T01:52:40;5.93;;;3.90;;
4359;SDS011;2193;47.980;7.660;2023-01-01T01:55:07;7.13;;;3.47;;
4359;SDS011;2193;47.980;7.660;2023-01-01T01:57:33;6.30;;;3.73;;
4359;SDS011;2193;47.980;7.660;2023-01-01T01:59:58;7.00;;;3.87;;
4359;SDS011;2193;47.980;7.660;2023-01-01T02:02:35;7.10;;;4.00;;
4359;SDS011;2193;47.980;7.660;2023-01-01T02:05:01;7.00;;;3.60;;
4359;SDS011;2193;47.980;7.660;2023-01-01T02:07:27;5.50;;;3.77;;
4359;SDS011;2193;47.980;7.660;2023-01-01T02:09:54;4.97;;;3.87;;
4359;SDS011;2193;47.980;7.660;2023-01-01T02:15:04;4.07;;;3.67;;
4359;SDS011;2193;47.980;7.660;2023-01-01T02:17:33;6.30;;;4.17;;
4359;SDS011;2193;47.980;7.660;2023-01-01T02:20:04;5.77;;;3.63;;
4359;SDS011;2193;47.980;7.660;2023-01-01T02:30:11;5.83;;;3.80;;
4359;SDS011;2193;47.980;7.660;2023-01-01T02:32:39;6.33;;;3.73;;
4359;SDS011;2193;47.980;7.660;2023-01-01T02:35:13;10.50;;;3.53;;
4359;SDS011;2193;47.980;7.660;2023-01-01T02:40:30;4.80;;;3.67;;
4359;SDS011;2193;47.980;7.660;2023-01-01T02:42:55;5.67;;;3.83;;
4359;SDS011;2193;47.980;7.660;2023-01-01T02:45:21;9.27;;;4.77;;
4359;SDS011;2193;47.980;7.660;2023-01-01T02:47:47;8.13;;;5.53;;
4359;SDS011;2193;47.980;7.660;2023-01-01T02:50:14;8.17;;;5.60;;
4359;SDS011;2193;47.980;7.660;2023-01-01T02:55:06;14.97;;;7.03;;
4359;SDS011;2193;47.980;7.660;2023-01-01T02:57:35;11.50;;;7.10;;
4359;SDS011;2193;47.980;7.660;2023-01-01T03:00:05;13.23;;;7.83;;
4359;SDS011;2193;47.980;7.660;2023-01-01T03:05:42;10.40;;;7.27;;
4359;SDS011;2193;47.980;7.660;2023-01-01T03:11:20;16.03;;;7.70;;
4359;SDS011;2193;47.980;7.660;2023-01-01T03:14:07;13.67;;;7.80;;
4359;SDS011;2193;47.980;7.660;2023-01-01T03:16:41;16.80;;;9.20;;
4359;SDS011;2193;47.980;7.660;2023-01-01T03:24:02;12.93;;;7.03;;
4359;SDS011;2193;47.980;7.660;2023-01-01T03:26:27;13.87;;;7.73;;
4359;SDS011;2193;47.980;7.660;2023-01-01T03:28:56;11.80;;;7.90;;
4359;SDS011;2193;47.980;7.660;2023-01-01T03:31:24;15.83;;;8.53;;
4359;SDS011;2193;47.980;7.660;2023-01-01T03:33:55;13.27;;;7.27;;
4359;SDS011;2193;47.980;7.660;2023-01-01T03:36:23;12.33;;;7.70;;
4359;SDS011;2193;47.980;7.660;2023-01-01T03:38:59;13.70;;;8.50;;
4359;SDS011;2193;47.980;7.660;2023-01-01T03:41:39;13.43;;;8.30;;
4359;SDS011;2193;47.980;7.660;2023-01-01T03:47:04;13.70;;;8.93;;
4359;SDS011;2193;47.980;7.660;2023-01-01T03:49:30;16.03;;;9.37;;
4359;SDS011;2193;47.980;7.660;2023-01-01T03:52:06;23.50;;;10.87;;
4359;SDS011;2193;47.980;7.660;2023-01-01T03:54:47;18.30;;;9.80;;
4359;SDS011;2193;47.980;7.660;2023-01-01T03:59:59;20.50;;;10.70;;
4359;SDS011;2193;47.980;7.660;2023-01-01T04:02:27;20.43;;;11.53;;
4359;SDS011;2193;47.980;7.660;2023-01-01T04:04:55;19.40;;;10.90;;
4359;SDS011;2193;47.980;7.660;2023-01-01T04:07:21;17.27;;;11.43;;
4359;SDS011;2193;47.980;7.660;2023-01-01T04:09:47;17.53;;;11.47;;
4359;SDS011;2193;47.980;7.660;2023-01-01T04:12:14;21.90;;;12.00;;
4359;SDS011;2193;47.980;7.660;2023-01-01T04:14:40;20.67;;;11.47;;
4359;SDS011;2193;47.980;7.660;2023-01-01T04:17:06;20.63;;;11.90;;
4359;SDS011;2193;47.980;7.660;2023-01-01T04:19:32;18.30;;;11.70;;
4359;SDS011;2193;47.980;7.660;2023-01-01T04:21:57;22.57;;;13.10;;
4359;SDS011;2193;47.980;7.660;2023-01-01T04:24:22;18.80;;;12.13;;
4359;SDS011;2193;47.980;7.660;2023-01-01T04:26:48;22.77;;;12.53;;
4359;SDS011;2193;47.980;7.660;2023-01-01T04:29:14;25.07;;;13.17;;
4359;SDS011;2193;47.980;7.660;2023-01-01T04:31:39;18.60;;;10.90;;
4359;SDS011;2193;47.980;7.660;2023-01-01T04:34:04;21.17;;;10.47;;
4359;SDS011;2193;47.980;7.660;2023-01-01T04:36:29;14.97;;;9.00;;
4359;SDS011;2193;47.980;7.660;2023-01-01T04:38:54;13.00;;;9.00;;
4359;SDS011;2193;47.980;7.660;2023-01-01T04:41:20;14.07;;;8.53;;
4359;SDS011;2193;47.980;7.660;2023-01-01T04:43:45;13.97;;;8.90;;
4359;SDS011;2193;47.980;7.660;2023-01-01T04:46:10;16.30;;;8.60;;
4359;SDS011;2193;47.980;7.660;2023-01-01T04:48:36;13.67;;;8.33;;
4359;SDS011;2193;47.980;7.660;2023-01-01T04:51:02;13.97;;;7.70;;
4359;SDS011;2193;47.980;7.660;2023-01-01T04:53:29;13.80;;;8.40;;
4359;SDS011;2193;47.980;7.660;2023-01-01T04:55:54;13.10;;;7.60;;
4359;SDS011;2193;47.980;7.660;2023-01-01T04:58:19;12.73;;;7.73;;
4359;SDS011;2193;47.980;7.660;2023-01-01T05:00:48;10.67;;;7.60;;
4359;SDS011;2193;47.980;7.660;2023-01-01T05:03:14;13.07;;;7.53;;
4359;SDS011;2193;47.980;7.660;2023-01-01T05:05:39;12.73;;;8.20;;
4359;SDS011;2193;47.980;7.660;2023-01-01T05:08:04;12.30;;;8.37;;
4359;SDS011;2193;47.980;7.660;2023-01-01T05:10:30;10.50;;;7.67;;
4359;SDS011;2193;47.980;7.660;2023-01-01T05:12:55;11.60;;;8.00;;
4359;SDS011;2193;47.980;7.660;2023-01-01T05:15:20;12.47;;;8.57;;
4359;SDS011;2193;47.980;7.660;2023-01-01T05:17:45;14.03;;;8.50;;
4359;SDS011;2193;47.980;7.660;2023-01-01T05:20:10;17.13;;;9.20;;
4359;SDS011;2193;47.980;7.660;2023-01-01T05:22:35;15.77;;;9.40;;
4359;SDS011;2193;47.980;7.660;2023-01-01T05:25:01;17.53;;;10.67;;
4359;SDS011;2193;47.980;7.660;2023-01-01T05:27:26;20.30;;;10.53;;
4359;SDS011;2193;47.980;7.660;2023-01-01T05:29:51;20.90;;;10.77;;
4359;SDS011;2193;47.980;7.660;2023-01-01T05:32:16;19.03;;;11.63;;
4359;SDS011;2193;47.980;7.660;2023-01-01T05:34:41;25.30;;;12.90;;
4359;SDS011;2193;47.980;7.660;2023-01-01T05:37:06;22.20;;;12.57;;
4359;SDS011;2193;47.980;7.660;2023-01-01T05:39:32;22.57;;;13.87;;
4359;SDS011;2193;47.980;7.660;2023-01-01T05:41:57;19.80;;;12.77;;
4359;SDS011;2193;47.980;7.660;2023-01-01T05:44:22;21.40;;;13.60;;
4359;SDS011;2193;47.980;7.660;2023-01-01T05:46:47;23.30;;;11.70;;
4359;SDS011;2193;47.980;7.660;2023-01-01T05:49:12;19.63;;;12.20;;
4359;SDS011;2193;47.980;7.660;2023-01-01T05:51:38;28.13;;;15.13;;
4359;SDS011;2193;47.980;7.660;2023-01-01T05:54:03;28.13;;;14.13;;
4359;SDS011;2193;47.980;7.660;2023-01-01T05:56:29;25.60;;;15.33;;
4359;SDS011;2193;47.980;7.660;2023-01-01T05:58:54;29.20;;;16.47;;
4359;SDS011;2193;47.980;7.660;2023-01-01T06:01:20;29.00;;;16.67;;
4359;SDS011;2193;47.980;7.660;2023-01-01T06:03:46;25.40;;;15.80;;
4359;SDS011;2193;47.980;7.660;2023-01-01T06:06:15;31.77;;;17.60;;
4359;SDS011;2193;47.980;7.660;2023-01-01T06:08:41;28.47;;;16.40;;
4359;SDS011;2193;47.980;7.660;2023-01-01T06:11:07;26.97;;;15.90;;
4359;SDS011;2193;47.980;7.660;2023-01-01T06:13:33;27.27;;;15.70;;
4359;SDS011;2193;47.980;7.660;2023-01-01T06:15:59;27.30;;;15.97;;
4359;SDS011;2193;47.980;7.660;2023-01-01T06:18:25;32.30;;;17.90;;
4359;SDS011;2193;47.980;7.660;2023-01-01T06:20:50;26.43;;;15.40;;
4359;SDS011;2193;47.980;7.660;2023-01-01T06:23:16;24.30;;;15.53;;
4359;SDS011;2193;47.980;7.660;2023-01-01T06:25:41;26.27;;;15.80;;
4359;SDS011;2193;47.980;7.660;2023-01-01T06:28:06;27.73;;;16.17;;
4359;SDS011;2193;47.980;7.660;2023-01-01T06:30:31;29.00;;;15.90;;
4359;SDS011;2193;47.980;7.660;2023-01-01T06:32:58;25.93;;;16.07;;
4359;SDS011;2193;47.980;7.660;2023-01-01T06:35:23;28.53;;;16.07;;
4359;SDS011;2193;47.980;7.660;2023-01-01T06:37:48;27.13;;;16.33;;
4359;SDS011;2193;47.980;7.660;2023-01-01T06:40:14;30.10;;;17.17;;
4359;SDS011;2193;47.980;7.660;2023-01-01T06:42:39;27.33;;;16.53;;
4359;SDS011;2193;47.980;7.660;2023-01-01T06:45:04;28.00;;;17.47;;
4359;SDS011;2193;47.980;7.660;2023-01-01T06:47:32;28.93;;;17.40;;
4359;SDS011;2193;47.980;7.660;2023-01-01T06:49:57;26.60;;;16.00;;
4359;SDS011;2193;47.980;7.660;2023-01-01T06:52:22;28.63;;;17.77;;
4359;SDS011;2193;47.980;7.660;2023-01-01T06:54:47;30.40;;;17.50;;
4359;SDS011;2193;47.980;7.660;2023-01-01T06:57:13;29.03;;;15.80;;
4359;SDS011;2193;47.980;7.660;2023-01-01T06:59:38;31.53;;;17.67;;
4359;SDS011;2193;47.980;7.660;2023-01-01T07:02:03;28.30;;;16.30;;
4359;SDS011;2193;47.980;7.660;2023-01-01T07:04:28;29.53;;;16.93;;
4359;SDS011;2193;47.980;7.660;2023-01-01T07:06:53;33.10;;;20.20;;
4359;SDS011;2193;47.980;7.660;2023-01-01T07:09:18;37.07;;;20.43;;
4359;SDS011;2193;47.980;7.660;2023-01-01T07:11:44;35.37;;;21.50;;
4359;SDS011;2193;47.980;7.660;2023-01-01T07:14:09;42.57;;;25.30;;
4359;SDS011;2193;47.980;7.660;2023-01-01T07:16:34;44.67;;;25.20;;
4359;SDS011;2193;47.980;7.660;2023-01-01T07:18:59;45.77;;;26.70;;
4359;SDS011;2193;47.980;7.660;2023-01-01T07:23:50;43.73;;;25.77;;
4359;SDS011;2193;47.980;7.660;2023-01-01T07:26:15;43.03;;;24.37;;
4359;SDS011;2193;47.980;7.660;2023-01-01T07:28:41;45.90;;;27.00;;
4359;SDS011;2193;47.980;7.660;2023-01-01T07:31:06;45.17;;;26.47;;
4359;SDS011;2193;47.980;7.660;2023-01-01T07:33:31;56.30;;;32.87;;
4359;SDS011;2193;47.980;7.660;2023-01-01T07:35:56;59.80;;;35.50;;
4359;SDS011;2193;47.980;7.660;2023-01-01T07:38:21;60.37;;;37.07;;
4359;SDS011;2193;47.980;7.660;2023-01-01T07:40:47;69.80;;;37.60;;
4359;SDS011;2193;47.980;7.660;2023-01-01T07:43:12;66.63;;;37.40;;
4359;SDS011;2193;47.980;7.660;2023-01-01T07:45:38;62.27;;;35.90;;
4359;SDS011;2193;47.980;7.660;2023-01-01T07:48:03;62.33;;;36.63;;
4359;SDS011;2193;47.980;7.660;2023-01-01T07:50:29;60.23;;;34.27;;
4359;SDS011;2193;47.980;7.660;2023-01-01T07:52:55;59.90;;;35.33;;
4359;SDS011;2193;47.980;7.660;2023-01-01T07:55:20;55.80;;;32.87;;
4359;SDS011;2193;47.980;7.660;2023-01-01T07:57:47;56.37;;;32.20;;
4359;SDS011;2193;47.980;7.660;2023-01-01T08:00:13;49.93;;;27.47;;
4359;SDS011;2193;47.980;7.660;2023-01-01T08:02:39;42.07;;;24.63;;
4359;SDS011;2193;47.980;7.660;2023-01-01T08:05:04;45.33;;;26.57;;
4359;SDS011;2193;47.980;7.660;2023-01-01T08:07:30;41.43;;;23.73;;
4359;SDS011;2193;47.980;7.660;2023-01-01T08:09:55;35.50;;;22.00;;
4359;SDS011;2193;47.980;7.660;2023-01-01T08:12:20;35.00;;;21.13;;
4359;SDS011;2193;47.980;7.660;2023-01-01T08:14:45;30.33;;;19.33;;
4359;SDS011;2193;47.980;7.660;2023-01-01T08:17:10;30.90;;;18.03;;
4359;SDS011;2193;47.980;7.660;2023-01-01T08:19:36;29.70;;;17.10;;
4359;SDS011;2193;47.980;7.660;2023-01-01T08:22:01;24.67;;;16.10;;
4359;SDS011;2193;47.980;7.660;2023-01-01T08:24:26;25.37;;;15.47;;
4359;SDS011;2193;47.980;7.660;2023-01-01T08:26:51;28.23;;;15.00;;
4359;SDS011;2193;47.980;7.660;2023-01-01T08:29:17;20.30;;;13.10;;
4359;SDS011;2193;47.980;7.660;2023-01-01T08:31:42;23.80;;;14.20;;
4359;SDS011;2193;47.980;7.660;2023-01-01T08:34:07;25.33;;;11.53;;
4359;SDS011;2193;47.980;7.660;2023-01-01T08:36:32;20.03;;;13.00;;
4359;SDS011;2193;47.980;7.660;2023-01-01T08:38:58;26.13;;;15.90;;
4359;SDS011;2193;47.980;7.660;2023-01-01T08:41:23;30.03;;;18.03;;
4359;SDS011;2193;47.980;7.660;2023-01-01T08:43:48;36.87;;;19.90;;
4359;SDS011;2193;47.980;7.660;2023-01-01T08:46:13;31.33;;;20.63;;
4359;SDS011;2193;47.980;7.660;2023-01-01T08:48:38;34.63;;;21.40;;
4359;SDS011;2193;47.980;7.660;2023-01-01T08:51:04;36.23;;;22.20;;
4359;SDS011;2193;47.980;7.660;2023-01-01T08:53:29;35.50;;;22.50;;
4359;SDS011;2193;47.980;7.660;2023-01-01T08:55:59;33.30;;;21.87;;
4359;SDS011;2193;47.980;7.660;2023-01-01T08:58:24;34.23;;;19.03;;
4359;SDS011;2193;47.980;7.660;2023-01-01T09:00:50;32.33;;;19.10;;
4359;SDS011;2193;47.980;7.660;2023-01-01T09:03:15;25.50;;;15.00;;
4359;SDS011;2193;47.980;7.660;2023-01-01T09:05:40;24.00;;;16.30;;
4359;SDS011;2193;47.980;7.660;2023-01-01T09:08:09;21.27;;;12.83;;
4359;SDS011;2193;47.980;7.660;2023-01-01T09:10:35;16.70;;;10.50;;
4359;SDS011;2193;47.980;7.660;2023-01-01T09:13:00;17.67;;;10.33;;
4359;SDS011;2193;47.980;7.660;2023-01-01T09:15:25;17.17;;;9.67;;
4359;SDS011;2193;47.980;7.660;2023-01-01T09:17:50;14.00;;;9.30;;
4359;SDS011;2193;47.980;7.660;2023-01-01T09:20:15;16.03;;;8.80;;
4359;SDS011;2193;47.980;7.660;2023-01-01T09:22:41;17.50;;;8.57;;
4359;SDS011;2193;47.980;7.660;2023-01-01T09:25:06;17.13;;;8.03;;
4359;SDS011;2193;47.980;7.660;2023-01-01T09:27:31;13.10;;;8.17;;
4359;SDS011;2193;47.980;7.660;2023-01-01T09:29:56;15.00;;;8.27;;
4359;SDS011;2193;47.980;7.660;2023-01-01T09:32:21;10.67;;;6.90;;
4359;SDS011;2193;47.980;7.660;2023-01-01T09:34:47;15.70;;;7.63;;
4359;SDS011;2193;47.980;7.660;2023-01-01T09:37:13;11.00;;;6.77;;
4359;SDS011;2193;47.980;7.660;2023-01-01T09:39:38;10.13;;;5.77;;
4359;SDS011;2193;47.980;7.660;2023-01-01T09:47:23;9.47;;;5.10;;
4359;SDS011;2193;47.980;7.660;2023-01-01T09:49:50;8.53;;;4.77;;
4359;SDS011;2193;47.980;7.660;2023-01-01T09:52:16;12.97;;;4.83;;
4359;SDS011;2193;47.980;7.660;2023-01-01T09:54:44;10.80;;;4.57;;
4359;SDS011;2193;47.980;7.660;2023-01-01T09:57:11;9.33;;;4.30;;
4359;SDS011;2193;47.980;7.660;2023-01-01T09:59:37;7.73;;;4.37;;
4359;SDS011;2193;47.980;7.660;2023-01-01T10:04:47;8.50;;;4.73;;
4359;SDS011;2193;47.980;7.660;2023-01-01T10:14:49;5.80;;;3.23;;
4359;SDS011;2193;47.980;7.660;2023-01-01T10:17:16;5.50;;;3.50;;
4359;SDS011;2193;47.980;7.660;2023-01-01T10:19:44;11.37;;;4.70;;
4359;SDS011;2193;47.980;7.660;2023-01-01T10:22:15;12.00;;;3.40;;
4359;SDS011;2193;47.980;7.660;2023-01-01T10:24:50;3.60;;;2.30;;
4359;SDS011;2193;47.980;7.660;2023-01-01T10:29:55;6.03;;;2.67;;
4359;SDS011;2193;47.980;7.660;2023-01-01T10:32:28;9.10;;;2.60;;
4359;SDS011;2193;47.980;7.660;2023-01-01T10:34:55;3.40;;;2.33;;
4359;SDS011;2193;47.980;7.660;2023-01-01T10:37:21;7.93;;;2.60;;
4359;SDS011;2193;47.980;7.660;2023-01-01T10:39:46;5.90;;;2.80;;
4359;SDS011;2193;47.980;7.660;2023-01-01T10:42:12;7.73;;;2.87;;
4359;SDS011;2193;47.980;7.660;2023-01-01T10:44:37;6.37;;;2.90;;
4359;SDS011;2193;47.980;7.660;2023-01-01T10:47:04;3.77;;;2.47;;
4359;SDS011;2193;47.980;7.660;2023-01-01T10:49:34;4.97;;;2.20;;
4359;SDS011;2193;47.980;7.660;2023-01-01T10:52:12;5.00;;;2.00;;
4359;SDS011;2193;47.980;7.660;2023-01-01T10:54:39;7.47;;;2.30;;
4359;SDS011;2193;47.980;7.660;2023-01-01T10:59:39;5.90;;;2.03;;
4359;SDS011;2193;47.980;7.660;2023-01-01T11:02:22;5.27;;;1.90;;
4359;SDS011;2193;47.980;7.660;2023-01-01T11:04:47;8.90;;;2.57;;
4359;SDS011;2193;47.980;7.660;2023-01-01T11:07:29;6.13;;;2.17;;
4359;SDS011;2193;47.980;7.660;2023-01-01T11:09:56;7.67;;;2.50;;
4359;SDS011;2193;47.980;7.660;2023-01-01T11:12:23;8.17;;;2.27;;
4359;SDS011;2193;47.980;7.660;2023-01-01T11:14:53;4.10;;;2.10;;
4359;SDS011;2193;47.980;7.660;2023-01-01T11:17:20;10.07;;;2.67;;
4359;SDS011;2193;47.980;7.660;2023-01-01T11:19:46;7.30;;;2.27;;
4359;SDS011;2193;47.980;7.660;2023-01-01T11:22:33;5.73;;;2.37;;
4359;SDS011;2193;47.980;7.660;2023-01-01T11:24:58;4.67;;;2.10;;
4359;SDS011;2193;47.980;7.660;2023-01-01T11:27:24;18.07;;;2.40;;
4359;SDS011;2193;47.980;7.660;2023-01-01T11:29:49;6.87;;;2.07;;
4359;SDS011;2193;47.980;7.660;2023-01-01T11:32:32;4.37;;;2.00;;
4359;SDS011;2193;47.980;7.660;2023-01-01T11:34:59;5.83;;;2.10;;
4359;SDS011;2193;47.980;7.660;2023-01-01T11:37:28;7.33;;;2.20;;
4359;SDS011;2193;47.980;7.660;2023-01-01T11:39:55;7.13;;;2.70;;
4359;SDS011;2193;47.980;7.660;2023-01-01T11:42:22;8.80;;;3.10;;
4359;SDS011;2193;47.980;7.660;2023-01-01T11:44:53;6.87;;;3.00;;
4359;SDS011;2193;47.980;7.660;2023-01-01T11:49:51;6.63;;;2.67;;
4359;SDS011;2193;47.980;7.660;2023-01-01T11:52:27;7.43;;;3.40;;
4359;SDS011;2193;47.980;7.660;2023-01-01T11:54:53;10.57;;;3.23;;
4359;SDS011;2193;47.980;7.660;2023-01-01T11:57:25;5.63;;;3.10;;
4359;SDS011;2193;47.980;7.660;2023-01-01T11:59:54;4.73;;;2.80;;
4359;SDS011;2193;47.980;7.660;2023-01-01T12:02:33;7.73;;;3.43;;
4359;SDS011;2193;47.980;7.660;2023-01-01T12:05:12;6.30;;;3.10;;
4359;SDS011;2193;47.980;7.660;2023-01-01T12:07:40;5.00;;;3.20;;
4359;SDS011;2193;47.980;7.660;2023-01-01T12:12:42;6.00;;;3.17;;
4359;SDS011;2193;47.980;7.660;2023-01-01T12:15:22;9.20;;;3.47;;
4359;SDS011;2193;47.980;7.660;2023-01-01T12:18:03;4.30;;;3.30;;
4359;SDS011;2193;47.980;7.660;2023-01-01T12:20:37;7.43;;;3.70;;
4359;SDS011;2193;47.980;7.660;2023-01-01T12:23:04;6.97;;;3.37;;
4359;SDS011;2193;47.980;7.660;2023-01-01T12:25:35;9.47;;;3.50;;
4359;SDS011;2193;47.980;7.660;2023-01-01T12:36:00;7.20;;;2.80;;
4359;SDS011;2193;47.980;7.660;2023-01-01T12:43:43;4.93;;;2.40;;
4359;SDS011;2193;47.980;7.660;2023-01-01T12:46:54;9.90;;;3.00;;
4359;SDS011;2193;47.980;7.660;2023-01-01T12:57:16;4.97;;;2.37;;
4359;SDS011;2193;47.980;7.660;2023-01-01T12:59:23;6.40;;;2.33;;
4359;SDS011;2193;47.980;7.660;2023-01-01T13:01:50;5.30;;;2.30;;
4359;SDS011;2193;47.980;7.660;2023-01-01T13:04:19;6.80;;;2.43;;
4359;SDS011;2193;47.980;7.660;2023-01-01T13:06:52;5.23;;;2.20;;
4359;SDS011;2193;47.980;7.660;2023-01-01T13:09:24;5.33;;;2.27;;
4359;SDS011;2193;47.980;7.660;2023-01-01T13:11:55;5.60;;;2.37;;
4359;SDS011;2193;47.980;7.660;2023-01-01T13:14:21;6.67;;;2.70;;
4359;SDS011;2193;47.980;7.660;2023-01-01T13:16:56;5.97;;;2.50;;
4359;SDS011;2193;47.980;7.660;2023-01-01T13:19:25;6.27;;;3.10;;
4359;SDS011;2193;47.980;7.660;2023-01-01T13:21:51;6.63;;;2.27;;
4359;SDS011;2193;47.980;7.660;2023-01-01T13:24:23;7.07;;;2.30;;
4359;SDS011;2193;47.980;7.660;2023-01-01T13:26:48;6.20;;;2.33;;
4359;SDS011;2193;47.980;7.660;2023-01-01T13:36:48;7.67;;;2.50;;
4359;SDS011;2193;47.980;7.660;2023-01-01T13:39:49;4.40;;;2.10;;
4359;SDS011;2193;47.980;7.660;2023-01-01T13:41:58;6.50;;;2.40;;
4359;SDS011;2193;47.980;7.660;2023-01-01T13:44:24;7.63;;;2.83;;
4359;SDS011;2193;47.980;7.660;2023-01-01T13:49:33;9.80;;;3.00;;
4359;SDS011;2193;47.980;7.660;2023-01-01T13:56:57;10.07;;;3.50;;
4359;SDS011;2193;47.980;7.660;2023-01-01T14:06:54;5.73;;;3.00;;
4359;SDS011;2193;47.980;7.660;2023-01-01T14:09:20;5.87;;;3.30;;
4359;SDS011;2193;47.980;7.660;2023-01-01T14:11:46;7.33;;;4.23;;
4359;SDS011;2193;47.980;7.660;2023-01-01T14:14:18;9.33;;;3.73;;
4359;SDS011;2193;47.980;7.660;2023-01-01T14:16:49;8.13;;;3.80;;
4359;SDS011;2193;47.980;7.660;2023-01-01T14:19:14;8.90;;;3.13;;
4359;SDS011;2193;47.980;7.660;2023-01-01T14:21:39;4.90;;;2.63;;
4359;SDS011;2193;47.980;7.660;2023-01-01T14:24:05;10.93;;;4.90;;
4359;SDS011;2193;47.980;7.660;2023-01-01T14:26:32;12.43;;;7.63;;
4359;SDS011;2193;47.980;7.660;2023-01-01T14:28:58;9.50;;;6.10;;
4359;SDS011;2193;47.980;7.660;2023-01-01T14:31:30;10.97;;;4.17;;
4359;SDS011;2193;47.980;7.660;2023-01-01T14:33:58;8.80;;;3.80;;
4359;SDS011;2193;47.980;7.660;2023-01-01T14:36:25;8.30;;;3.47;;
4359;SDS011;2193;47.980;7.660;2023-01-01T14:38:51;11.30;;;4.10;;
4359;SDS011;2193;47.980;7.660;2023-01-01T14:43:48;13.30;;;3.90;;
4359;SDS011;2193;47.980;7.660;2023-01-01T14:46:15;7.57;;;3.90;;
4359;SDS011;2193;47.980;7.660;2023-01-01T14:48:42;7.10;;;3.70;;
4359;SDS011;2193;47.980;7.660;2023-01-01T14:51:07;8.13;;;4.00;;
4359;SDS011;2193;47.980;7.660;2023-01-01T14:53:35;14.63;;;4.40;;
4359;SDS011;2193;47.980;7.660;2023-01-01T14:56:00;9.73;;;3.93;;
4359;SDS011;2193;47.980;7.660;2023-01-01T14:58:30;11.73;;;4.50;;
4359;SDS011;2193;47.980;7.660;2023-01-01T15:01:12;11.63;;;5.37;;
4359;SDS011;2193;47.980;7.660;2023-01-01T15:03:38;5.90;;;3.60;;
4359;SDS011;2193;47.980;7.660;2023-01-01T15:06:03;9.83;;;4.60;;
4359;SDS011;2193;47.980;7.660;2023-01-01T15:08:30;8.23;;;4.87;;
4359;SDS011;2193;47.980;7.660;2023-01-01T15:10:56;9.30;;;4.63;;
4359;SDS011;2193;47.980;7.660;2023-01-01T15:13:22;9.23;;;4.73;;
4359;SDS011;2193;47.980;7.660;2023-01-01T15:15:49;9.83;;;4.57;;
4359;SDS011;2193;47.980;7.660;2023-01-01T15:20:59;10.63;;;5.50;;
4359;SDS011;2193;47.980;7.660;2023-01-01T15:23:24;11.73;;;5.40;;
4359;SDS011;2193;47.980;7.660;2023-01-01T15:25:49;10.40;;;5.97;;
4359;SDS011;2193;47.980;7.660;2023-01-01T15:28:18;14.70;;;6.70;;
4359;SDS011;2193;47.980;7.660;2023-01-01T15:30:44;12.80;;;6.10;;
4359;SDS011;2193;47.980;7.660;2023-01-01T15:33:16;11.13;;;6.53;;
4359;SDS011;2193;47.980;7.660;2023-01-01T15:35:44;11.40;;;6.13;;
4359;SDS011;2193;47.980;7.660;2023-01-01T15:40:41;16.07;;;8.83;;
4359;SDS011;2193;47.980;7.660;2023-01-01T15:43:12;15.80;;;10.10;;
4359;SDS011;2193;47.980;7.660;2023-01-01T15:45:38;19.40;;;11.30;;
4359;SDS011;2193;47.980;7.660;2023-01-01T15:50:31;18.33;;;8.30;;
4359;SDS011;2193;47.980;7.660;2023-01-01T15:52:58;13.77;;;7.03;;
4359;SDS011;2193;47.980;7.660;2023-01-01T15:55:28;14.87;;;6.23;;
4359;SDS011;2193;47.980;7.660;2023-01-01T15:57:56;13.07;;;7.00;;
4359;SDS011;2193;47.980;7.660;2023-01-01T16:00:26;14.23;;;7.47;;
4359;SDS011;2193;47.980;7.660;2023-01-01T16:02:52;13.20;;;7.50;;
4359;SDS011;2193;47.980;7.660;2023-01-01T16:05:24;14.10;;;7.07;;
4359;SDS011;2193;47.980;7.660;2023-01-01T16:07:59;11.70;;;8.00;;
4359;SDS011;2193;47.980;7.660;2023-01-01T16:10:26;13.43;;;7.67;;
4359;SDS011;2193;47.980;7.660;2023-01-01T16:12:51;9.90;;;6.33;;
4359;SDS011;2193;47.980;7.660;2023-01-01T16:15:16;9.60;;;5.70;;
4359;SDS011;2193;47.980;7.660;2023-01-01T16:17:41;13.07;;;6.37;;
4359;SDS011;2193;47.980;7.660;2023-01-01T16:20:12;9.80;;;6.00;;
4359;SDS011;2193;47.980;7.660;2023-01-01T16:22:37;14.33;;;7.00;;
4359;SDS011;2193;47.980;7.660;2023-01-01T16:25:10;12.47;;;6.27;;
4359;SDS011;2193;47.980;7.660;2023-01-01T16:27:36;11.53;;;5.50;;
4359;SDS011;2193;47.980;7.660;2023-01-01T16:30:01;10.77;;;5.50;;
4359;SDS011;2193;47.980;7.660;2023-01-01T16:32:26;14.57;;;6.50;;
4359;SDS011;2193;47.980;7.660;2023-01-01T16:34:51;15.63;;;8.07;;
4359;SDS011;2193;47.980;7.660;2023-01-01T16:37:16;18.00;;;6.60;;
4359;SDS011;2193;47.980;7.660;2023-01-01T16:39:46;21.23;;;9.13;;
4359;SDS011;2193;47.980;7.660;2023-01-01T16:42:11;17.50;;;10.37;;
4359;SDS011;2193;47.980;7.660;2023-01-01T16:44:39;16.50;;;9.03;;
4359;SDS011;2193;47.980;7.660;2023-01-01T16:47:04;18.93;;;11.20;;
4359;SDS011;2193;47.980;7.660;2023-01-01T16:49:29;29.90;;;12.83;;
4359;SDS011;2193;47.980;7.660;2023-01-01T16:51:55;18.53;;;11.10;;
4359;SDS011;2193;47.980;7.660;2023-01-01T16:54:20;13.20;;;8.57;;
4359;SDS011;2193;47.980;7.660;2023-01-01T16:56:45;13.30;;;8.70;;